Time;durP1;ratioP1;P1;durP2;ratioP2;P2;SDS_P1;SDS_P2;PMS_P1;PMS_P2;Temp;Humidity;BMP_temperature;BMP_pressure;BME280_temperature;BME280_humidity;BME280_pressure;Samples;Min_cycle;Max_cycle;Signal;HPM_P1;HPM_P2
2023/10/09 00:02:14;;;;;;;10.68;5.03;;;13.70;13.40;;;;;;5100800;28;20051;-88
2023/10/09 00:04:52;;;;;;;;;;;;;;;;;;;;;
2023/10/09 00:07:20;;;;;;;10.40;5.72;;;13.60;18.00;;;;;;5115923;28;20054;-88
2023/10/09 00:09:48;;;;;;;7.32;4.93;;;13.50;19.50;;;;;;5099969;28;20511;-88
2023/10/09 00:12:23;;;;;;;12.10;5.38;;;13.70;21.10;;;;;;5117812;28;20051;-88
2023/10/09 00:14:55;;;;;;;9.60;5.47;;;13.50;22.30;;;;;;5099900;28;20036;-88
2023/10/09 00:17:23;;;;;;;12.38;7.00;;;12.90;22.90;;;;;;5100027;28;20047;-88
2023/10/09 00:19:52;;;;;;;11.73;6.68;;;13.50;24.70;;;;;;5100024;28;20036;-88
2023/10/09 00:25:44;;;;;;;8.18;6.25;;;13.60;28.40;;;;;;5115437;28;20055;-88
2023/10/09 00:27:51;;;;;;;13.93;6.95;;;13.50;29.50;;;;;;5101802;28;20569;-88
2023/10/09 00:30:18;;;;;;;11.40;6.78;;;13.50;30.60;;;;;;5099144;28;20048;-88
2023/10/09 00:33:07;;;;;;;13.60;8.75;;;13.50;33.00;;;;;;5098364;28;20055;-88
2023/10/09 00:35:41;;;;;;;13.20;8.07;;;13.50;34.70;;;;;;5099574;28;20144;-88
2023/10/09 00:38:33;;;;;;;17.83;9.00;;;13.50;35.50;;;;;;5099866;28;20080;-87
2023/10/09 00:41:02;;;;;;;13.20;8.23;;;13.40;35.80;;;;;;5116443;28;20083;-88
2023/10/09 00:43:35;;;;;;;12.63;8.35;;;13.40;36.80;;;;;;5116757;28;20051;-88
2023/10/09 00:46:12;;;;;;;14.30;8.30;;;14.50;37.90;;;;;;5150344;27;20397;-88
2023/10/09 00:48:41;;;;;;;13.30;8.95;;;13.40;38.50;;;;;;5099648;28;20039;-88
2023/10/09 00:51:18;;;;;;;15.23;8.95;;;13.50;39.00;;;;;;5098166;28;20063;-88
2023/10/09 00:53:51;;;;;;;;;;;13.50;40.30;;;;;;5098706;28;20052;-87
2023/10/09 00:59:03;;;;;;;18.20;8.73;;;13.50;40.70;;;;;;5115671;28;20243;-88
2023/10/09 01:01:39;;;;;;;15.52;9.43;;;13.50;39.70;;;;;;5098907;28;20051;-88
2023/10/09 01:04:22;;;;;;;18.33;10.48;;;13.50;40.40;;;;;;5098695;28;20051;-88
2023/10/09 01:07:15;;;;;;;16.48;10.65;;;13.50;42.10;;;;;;5149868;27;20057;-88
2023/10/09 01:09:43;;;;;;;15.63;9.70;;;13.50;43.80;;;;;;5114195;28;20435;-88
2023/10/09 01:12:16;;;;;;;18.80;11.32;;;13.50;44.50;;;;;;5082932;28;20053;-88
2023/10/09 01:14:59;;;;;;;20.00;10.90;;;13.50;45.30;;;;;;5098954;28;20134;-88
2023/10/09 01:17:35;;;;;;;20.90;12.30;;;13.50;47.50;;;;;;5097068;28;20085;-88
2023/10/09 01:20:07;;;;;;;20.10;13.38;;;13.60;48.70;;;;;;5130940;27;20050;-88
2023/10/09 01:22:45;;;;;;;22.55;12.95;;;13.50;49.70;;;;;;5081667;28;20052;-88
2023/10/09 01:25:32;;;;;;;23.25;14.38;;;13.50;51.20;;;;;;5096729;28;20047;-88
2023/10/09 01:28:01;;;;;;;26.25;14.32;;;13.60;53.00;;;;;;5113521;28;20052;-88
2023/10/09 01:30:27;;;;;;;28.65;17.15;;;13.60;52.70;;;;;;5096900;28;20134;-89
2023/10/09 01:33:11;;;;;;;28.20;14.85;;;13.50;54.20;;;;;;5147540;27;20065;-88
2023/10/09 01:35:47;;;;;;;24.02;16.33;;;13.60;55.10;;;;;;5096516;28;20051;-88
2023/10/09 01:38:30;;;;;;;22.63;15.43;;;13.60;55.80;;;;;;5148269;27;20309;-88
2023/10/09 01:41:06;;;;;;;22.95;14.85;;;13.70;56.40;;;;;;5113050;28;20086;-88
2023/10/09 01:43:34;;;;;;;24.48;16.00;;;13.60;57.10;;;;;;5096838;28;20047;-88
2023/10/09 01:46:10;;;;;;;26.65;15.63;;;13.60;58.40;;;;;;5147242;27;20044;-88
2023/10/09 01:48:39;;;;;;;28.42;16.02;;;13.50;59.50;;;;;;5148668;27;20043;-88
2023/10/09 01:51:05;;;;;;;27.20;15.93;;;13.50;60.00;;;;;;5096915;28;20051;-88
2023/10/09 01:53:33;;;;;;;27.65;16.67;;;13.60;60.30;;;;;;5097769;28;20054;-88
2023/10/09 01:56:14;;;;;;;30.40;16.50;;;13.60;61.70;;;;;;5132372;27;20051;-88
2023/10/09 01:58:47;;;;;;;29.73;16.48;;;13.60;63.40;;;;;;5097203;28;20135;-88
2023/10/09 02:01:17;;;;;;;30.45;18.95;;;13.50;62.30;;;;;;5147660;27;20473;-87
2023/10/09 02:03:43;;;;;;;27.15;17.63;;;13.70;62.80;;;;;;5096910;28;20408;-88
2023/10/09 02:09:19;;;;;;;29.17;17.08;;;13.50;63.90;;;;;;5100291;28;20503;-88
2023/10/09 02:11:45;;;;;;;28.08;16.70;;;13.50;64.50;;;;;;5096477;28;20093;-88
2023/10/09 02:14:23;;;;;;;29.50;16.95;;;13.40;65.60;;;;;;5080281;28;20075;-88
2023/10/09 02:17:02;;;;;;;29.33;17.60;;;13.40;67.10;;;;;;5097374;28;20039;-88
2023/10/09 02:19:34;;;;;;;33.67;18.83;;;13.40;67.70;;;;;;5097092;28;20512;-88
2023/10/09 02:22:12;;;;;;;28.58;18.73;;;12.90;67.90;;;;;;5095509;28;20047;-88
2023/10/09 02:24:57;;;;;;;30.00;18.98;;;13.50;68.80;;;;;;5097063;28;20047;-88
2023/10/09 02:30:34;;;;;;;31.15;20.55;;;13.40;70.80;;;;;;5055388;28;20138;-88
2023/10/09 02:33:09;;;;;;;29.55;18.67;;;13.50;71.10;;;;;;5055137;28;20052;-88
2023/10/09 02:35:44;;;;;;;31.25;19.00;;;13.50;71.80;;;;;;5079228;28;20466;-88
2023/10/09 02:38:17;;;;;;;31.17;18.98;;;13.50;71.90;;;;;;5096347;28;20052;-88
2023/10/09 02:43:34;;;;;;;31.65;19.55;;;13.60;73.70;;;;;;5114520;28;20047;-88
2023/10/09 02:46:13;;;;;;;31.23;20.30;;;13.50;74.30;;;;;;5080712;28;20076;-88
2023/10/09 02:48:56;;;;;;;29.30;19.40;;;13.50;75.10;;;;;;5096015;28;20092;-88
2023/10/09 02:53:57;;;;;;;32.47;21.55;;;13.50;76.50;;;;;;5129798;27;20047;-88
2023/10/09 02:59:22;;;;;;;30.60;19.60;;;13.70;78.70;;;;;;5103048;27;20521;-88
2023/10/09 03:01:51;;;;;;;30.27;20.88;;;13.40;79.20;;;;;;5097260;28;20134;-87
2023/10/09 03:04:19;;;;;;;37.72;22.52;;;13.40;79.60;;;;;;5148596;27;20043;-88
2023/10/09 03:06:51;;;;;;;35.05;22.23;;;13.40;80.30;;;;;;5148019;27;20046;-87
2023/10/09 03:09:27;;;;;;;38.40;24.00;;;13.40;80.90;;;;;;5096304;28;20040;-88
2023/10/09 03:12:06;;;;;;;38.30;23.63;;;13.50;82.00;;;;;;5131481;28;20134;-87
2023/10/09 03:14:41;;;;;;;35.17;23.45;;;13.50;83.60;;;;;;5148075;27;20052;-87
2023/10/09 03:17:11;;;;;;;39.97;24.30;;;13.40;84.40;;;;;;5096181;28;20047;-88
2023/10/09 03:19:43;;;;;;;41.95;24.02;;;13.40;85.80;;;;;;5097217;28;20048;-87
2023/10/09 03:22:11;;;;;;;39.53;25.58;;;13.50;86.20;;;;;;5115081;28;20397;-87
2023/10/09 03:24:38;;;;;;;37.90;25.20;;;12.50;86.10;;;;;;5080476;28;20055;-87
2023/10/09 03:27:14;;;;;;;45.88;25.77;;;13.50;87.20;;;;;;5113069;28;20073;-88
2023/10/09 03:29:41;;;;;;;44.28;26.25;;;13.00;88.10;;;;;;5081056;28;20086;-87
2023/10/09 03:32:11;;;;;;;43.03;27.55;;;13.60;88.80;;;;;;5147239;27;20035;-87
2023/10/09 03:34:38;;;;;;;44.78;28.52;;;13.60;89.20;;;;;;5099924;28;20044;-88
2023/10/09 03:37:21;;;;;;;42.30;25.17;;;13.50;90.00;;;;;;5082851;28;20489;-88
2023/10/09 03:39:47;;;;;;;46.00;26.95;;;13.60;90.40;;;;;;5085231;28;20039;-88
2023/10/09 03:42:22;;;;;;;49.33;28.63;;;13.60;90.80;;;;;;5100341;28;20072;-88
2023/10/09 03:44:53;;;;;;;53.20;29.58;;;13.60;91.20;;;;;;5136139;27;20405;-88
2023/10/09 03:47:24;;;;;;;50.28;30.30;;;13.60;91.70;;;;;;5100022;28;20051;-87
2023/10/09 03:49:53;;;;;;;44.22;28.25;;;13.70;92.10;;;;;;5099636;28;20070;-88
2023/10/09 03:52:19;;;;;;;47.63;30.33;;;13.70;92.40;;;;;;5099920;28;20055;-87
2023/10/09 03:54:52;;;;;;;49.05;31.63;;;13.70;92.80;;;;;;5117308;28;20108;-87
2023/10/09 03:57:25;;;;;;;41.35;27.63;;;13.80;93.30;;;;;;5099852;28;20086;-88
2023/10/09 03:59:55;;;;;;;46.38;31.00;;;13.80;94.70;;;;;;5099818;28;20396;-88
2023/10/09 04:02:24;;;;;;;49.08;31.73;;;13.90;94.50;;;;;;5150585;27;20083;-88
2023/10/09 04:04:52;;;;;;;46.92;29.98;;;13.80;94.70;;;;;;5099665;28;20477;-87
2023/10/09 04:07:21;;;;;;;51.00;31.17;;;13.90;94.60;;;;;;5098171;28;20051;-87
2023/10/09 04:10:26;;;;;;;44.00;29.17;;;13.90;94.90;;;;;;5099311;28;20050;-88
2023/10/09 04:12:39;;;;;;;47.90;29.05;;;13.20;94.90;;;;;;5116494;28;20067;-88
2023/10/09 04:15:06;;;;;;;45.35;28.65;;;14.00;95.40;;;;;;5099595;28;20131;-88
2023/10/09 04:17:33;;;;;;;48.92;30.50;;;14.10;95.20;;;;;;5149602;27;20046;-88
2023/10/09 04:22:59;;;;;;;47.35;29.70;;;14.00;95.50;;;;;;5116067;28;20051;-88
2023/10/09 04:25:26;;;;;;;48.30;29.52;;;14.10;95.60;;;;;;5150191;27;20078;-87
2023/10/09 04:27:53;;;;;;;46.95;29.25;;;14.10;95.70;;;;;;5098871;28;20082;-87
2023/10/09 04:30:26;;;;;;;45.63;30.13;;;14.10;95.90;;;;;;5099047;28;20048;-88
2023/10/09 04:33:00;;;;;;;49.13;31.02;;;14.10;95.90;;;;;;5133752;27;20135;-88
2023/10/09 04:35:33;;;;;;;51.25;31.42;;;14.10;96.20;;;;;;5083423;28;20083;-88
2023/10/09 04:38:05;;;;;;;55.88;33.10;;;14.10;96.40;;;;;;5116108;28;20090;-87
2023/10/09 04:40:41;;;;;;;50.20;31.75;;;14.10;96.50;;;;;;5116193;28;20333;-88
2023/10/09 04:43:09;;;;;;;45.13;30.63;;;14.20;96.80;;;;;;5099134;28;20043;-88
2023/10/09 04:48:32;;;;;;;53.65;30.85;;;14.20;97.60;;;;;;5114896;28;20048;-88
2023/10/09 04:53:47;;;;;;;49.35;32.03;;;14.20;97.60;;;;;;5116107;28;20102;-87
2023/10/09 04:56:16;;;;;;;42.35;28.50;;;14.20;97.70;;;;;;5098587;28;20480;-88
2023/10/09 04:58:45;;;;;;;46.72;29.77;;;14.20;97.80;;;;;;5150440;27;20043;-87
2023/10/09 05:01:21;;;;;;;49.92;33.75;;;14.20;97.60;;;;;;5098188;28;20056;-88
2023/10/09 05:03:56;;;;;;;54.97;33.45;;;14.30;98.00;;;;;;5099129;28;20044;-88
2023/10/09 05:06:54;;;;;;;50.55;31.50;;;14.30;98.50;;;;;;5149611;27;20050;-88
2023/10/09 05:09:13;;;;;;;49.90;31.08;;;14.20;98.70;;;;;;5114832;28;20054;-88
2023/10/09 05:14:19;;;;;;;48.00;31.45;;;14.20;98.90;;;;;;5133321;27;20053;-88
2023/10/09 05:16:56;;;;;;;54.00;32.72;;;14.20;99.30;;;;;;5098345;28;20104;-88
2023/10/09 05:22:16;;;;;;;51.97;31.27;;;14.30;99.90;;;;;;5149465;27;19923;-88
2023/10/09 05:24:46;;;;;;;49.42;31.75;;;14.30;99.40;;;;;;5098467;28;20043;-88
2023/10/09 05:27:17;;;;;;;55.22;32.55;;;14.30;99.30;;;;;;5149574;27;20048;-88
2023/10/09 05:30:12;;;;;;;50.92;32.08;;;14.40;99.80;;;;;;5098333;28;20043;-88
2023/10/09 05:32:48;;;;;;;58.17;33.63;;;14.40;99.90;;;;;;5113535;28;20107;-88
2023/10/09 05:35:20;;;;;;;48.92;32.42;;;14.40;99.90;;;;;;5083040;28;20150;-88
2023/10/09 05:37:46;;;;;;;46.88;29.65;;;14.40;99.90;;;;;;5097711;28;20043;-88
2023/10/09 05:50:34;;;;;;;45.88;26.60;;;13.60;99.90;;;;;;5114411;28;20043;-88
2023/10/09 06:02:16;;;;;;;39.38;23.80;;;14.80;99.90;;;;;;5134589;27;20055;-88
2023/10/09 06:04:11;;;;;;;39.28;25.00;;;14.80;99.90;;;;;;5115472;28;20081;-90
2023/10/09 06:06:56;;;;;;;34.80;23.17;;;14.40;99.90;;;;;;5097825;28;20078;-88
2023/10/09 06:12:33;;;;;;;36.58;23.20;;;14.90;99.90;;;;;;5114894;28;20047;-88
2023/10/09 06:19:51;;;;;;;34.17;21.42;;;15.00;99.90;;;;;;5116118;28;20055;-88
2023/10/09 06:23:16;;;;;;;28.63;20.52;;;14.90;99.90;;;;;;5133403;27;20093;-88
2023/10/09 06:25:39;;;;;;;29.27;19.60;;;15.00;99.90;;;;;;5105829;28;20485;-87
2023/10/09 06:28:05;;;;;;;34.30;19.25;;;15.00;99.90;;;;;;5101753;28;20165;-88
2023/10/09 06:30:41;;;;;;;29.23;19.05;;;15.00;99.90;;;;;;5080605;28;20138;-88
2023/10/09 06:36:17;;;;;;;30.92;18.80;;;15.00;99.90;;;;;;5086666;28;20055;-88
2023/10/09 06:39:50;;;;;;;30.55;18.80;;;14.30;99.90;;;;;;5148759;27;20051;-88
2023/10/09 06:42:02;;;;;;;;;;;;;;;;;;;;;
2023/10/09 06:47:22;;;;;;;27.55;16.00;;;15.30;99.90;;;;;;5114410;28;20043;-87
2023/10/09 06:53:19;;;;;;;25.38;14.20;;;15.20;99.90;;;;;;5134310;27;20047;-88
2023/10/09 06:55:48;;;;;;;24.45;15.23;;;15.20;99.90;;;;;;5113245;28;20047;-87
2023/10/09 06:59:04;;;;;;;22.85;14.30;;;15.10;99.90;;;;;;5096284;28;20044;-87
2023/10/09 07:04:18;;;;;;;24.27;13.70;;;14.40;99.90;;;;;;5094060;28;20040;-86
2023/10/09 07:06:56;;;;;;;28.83;14.80;;;15.20;99.90;;;;;;5095886;28;20047;-87
2023/10/09 07:09:23;;;;;;;22.88;12.95;;;15.20;99.90;;;;;;5099473;28;20031;-87
2023/10/09 07:20:36;;;;;;;19.02;12.10;;;15.30;99.90;;;;;;5135983;27;19967;-87
2023/10/09 07:23:17;;;;;;;21.83;14.27;;;15.10;99.90;;;;;;5118381;28;20040;-88
2023/10/09 07:25:58;;;;;;;22.40;12.25;;;15.20;99.90;;;;;;5085295;28;20044;-88
2023/10/09 07:28:36;;;;;;;25.75;14.05;;;15.30;99.90;;;;;;5100741;28;20100;-89
2023/10/09 07:31:09;;;;;;;22.80;12.48;;;15.30;99.90;;;;;;5101769;28;20058;-89
2023/10/09 07:36:42;;;;;;;26.77;15.15;;;15.30;99.90;;;;;;5137253;27;20047;-89
2023/10/09 07:39:44;;;;;;;23.50;13.20;;;15.30;99.90;;;;;;5087152;28;20039;-89
2023/10/09 07:42:27;;;;;;;21.15;12.57;;;15.30;99.90;;;;;;5100966;28;20056;-90
2023/10/09 07:45:54;;;;;;;24.02;12.57;;;15.30;99.90;;;;;;5152935;27;20044;-89
2023/10/09 07:50:40;;;;;;;21.70;12.80;;;15.40;99.90;;;;;;5116115;28;20101;-89
2023/10/09 07:56:20;;;;;;;17.98;11.73;;;15.30;99.90;;;;;;5062783;28;20063;-90
2023/10/09 07:59:00;;;;;;;21.35;12.10;;;15.30;99.90;;;;;;5084113;28;20051;-90
2023/10/09 08:01:52;;;;;;;18.35;12.27;;;15.40;99.90;;;;;;5099617;28;20055;-89
2023/10/09 08:04:37;;;;;;;25.42;13.38;;;15.40;99.90;;;;;;5152513;27;20042;-89
2023/10/09 08:07:25;;;;;;;20.58;12.98;;;16.20;99.90;;;;;;5151912;27;20100;-89
2023/10/09 08:12:57;;;;;;;20.88;13.15;;;15.40;99.90;;;;;;5116120;28;20575;-89
2023/10/09 08:16:01;;;;;;;;;;;;;;;;;;;;;
2023/10/09 08:18:44;;;;;;;24.17;12.15;;;15.40;99.90;;;;;;5102117;28;20048;-89
2023/10/09 08:21:46;;;;;;;18.65;13.20;;;16.50;99.90;;;;;;5102971;27;20043;-90
2023/10/09 08:24:40;;;;;;;24.60;13.50;;;15.50;99.90;;;;;;5115244;28;20054;-89
2023/10/09 08:30:44;;;;;;;;;;;15.50;99.90;;;;;;5070575;28;20051;-88
2023/10/09 08:36:05;;;;;;;23.98;13.07;;;15.60;99.90;;;;;;5115932;28;20055;-89
2023/10/09 08:39:24;;;;;;;;;;;;;;;;;;;;;
2023/10/09 08:41:41;;;;;;;;;;;15.60;99.90;;;;;;5111903;28;20107;-89
2023/10/09 08:44:23;;;;;;;17.58;11.40;;;15.70;99.90;;;;;;5099202;28;20254;-89
2023/10/09 08:47:10;;;;;;;20.02;13.02;;;14.80;99.90;;;;;;5099182;28;20052;-89
2023/10/09 08:49:40;;;;;;;20.42;12.05;;;15.60;99.90;;;;;;5116571;28;20078;-89
2023/10/09 08:52:15;;;;;;;24.08;13.50;;;15.70;99.90;;;;;;5098642;28;20402;-89
2023/10/09 08:54:44;;;;;;;22.38;13.20;;;15.70;99.90;;;;;;5099661;28;20040;-89
2023/10/09 08:57:19;;;;;;;24.70;13.30;;;15.60;99.90;;;;;;5100058;28;20051;-89
2023/10/09 08:59:50;;;;;;;22.70;12.93;;;15.60;99.90;;;;;;5150564;27;20087;-88
2023/10/09 09:02:21;;;;;;;23.83;13.88;;;15.60;99.90;;;;;;5132701;27;20052;-87
2023/10/09 09:04:52;;;;;;;21.77;13.25;;;15.50;99.90;;;;;;5133403;27;20055;-88
2023/10/09 09:07:31;;;;;;;28.10;13.57;;;15.50;99.90;;;;;;5116217;28;20044;-88
2023/10/09 09:10:17;;;;;;;20.55;13.43;;;15.60;99.90;;;;;;5098393;28;20468;-87
2023/10/09 09:12:46;;;;;;;24.90;13.27;;;15.50;99.90;;;;;;5084022;28;20048;-87
2023/10/09 09:15:19;;;;;;;17.52;12.73;;;15.50;99.90;;;;;;5098921;28;20047;-88
2023/10/09 09:17:46;;;;;;;21.27;14.45;;;15.50;99.90;;;;;;5150308;27;20071;-90
2023/10/09 09:20:39;;;;;;;;;;;15.50;99.90;;;;;;5149824;27;20055;-90
2023/10/09 09:23:12;;;;;;;21.42;12.75;;;15.50;99.90;;;;;;5132947;27;19919;-90
2023/10/09 09:25:47;;;;;;;19.67;12.27;;;15.50;99.90;;;;;;5099280;28;20051;-90
2023/10/09 09:28:20;;;;;;;20.88;13.75;;;15.50;99.90;;;;;;5115207;28;20046;-90
2023/10/09 09:30:53;;;;;;;30.77;15.02;;;15.60;99.90;;;;;;5149121;27;20040;-91
2023/10/09 09:33:39;;;;;;;19.17;12.93;;;15.60;99.90;;;;;;5098017;28;20052;-90
2023/10/09 09:36:06;;;;;;;22.42;14.90;;;15.60;99.90;;;;;;5097706;28;20047;-88
2023/10/09 09:38:47;;;;;;;24.92;14.60;;;15.60;99.90;;;;;;5114518;28;20486;-88
2023/10/09 09:41:23;;;;;;;24.45;14.15;;;15.60;99.90;;;;;;5148887;27;20048;-88
2023/10/09 09:43:53;;;;;;;28.98;15.63;;;15.60;99.90;;;;;;5098219;28;20052;-88
2023/10/09 09:46:19;;;;;;;30.70;15.20;;;15.30;99.90;;;;;;5097540;28;20496;-88
2023/10/09 09:48:47;;;;;;;25.52;15.98;;;15.60;99.90;;;;;;5148908;27;20043;-88
2023/10/09 09:51:17;;;;;;;26.85;17.17;;;15.70;99.90;;;;;;5131447;27;20086;-88
2023/10/09 09:53:53;;;;;;;30.83;15.57;;;14.90;99.90;;;;;;5098793;28;20138;-88
2023/10/09 09:56:24;;;;;;;40.83;19.27;;;14.80;99.90;;;;;;5114723;28;20050;-88
2023/10/09 09:59:01;;;;;;;25.55;15.73;;;15.70;99.90;;;;;;5149695;27;20052;-88
2023/10/09 10:01:33;;;;;;;23.77;15.32;;;15.70;99.90;;;;;;5148919;27;20092;-88
2023/10/09 10:04:20;;;;;;;33.42;16.35;;;15.80;99.90;;;;;;5104583;28;20134;-88
2023/10/09 10:06:50;;;;;;;22.58;14.65;;;15.80;99.90;;;;;;5102666;28;20048;-88
2023/10/09 10:09:38;;;;;;;32.13;14.77;;;15.80;99.90;;;;;;5148839;27;20055;-88
2023/10/09 10:12:10;;;;;;;31.50;15.30;;;15.90;99.90;;;;;;5147469;27;20055;-88
2023/10/09 10:14:52;;;;;;;29.85;15.30;;;15.90;99.90;;;;;;5098011;28;20055;-88
2023/10/09 10:17:23;;;;;;;25.63;15.23;;;15.90;99.90;;;;;;5096858;28;20040;-88
2023/10/09 10:22:48;;;;;;;30.35;15.68;;;16.10;99.90;;;;;;5114767;28;20055;-88
2023/10/09 10:25:32;;;;;;;30.38;16.10;;;16.00;99.90;;;;;;5148260;27;20470;-88
2023/10/09 10:31:15;;;;;;;32.40;15.82;;;16.10;99.90;;;;;;5102993;28;20039;-87
2023/10/09 10:33:59;;;;;;;25.45;16.15;;;16.00;99.90;;;;;;5096706;28;20051;-88
2023/10/09 10:36:57;;;;;;;;;;;;;;;;;;;;;
2023/10/09 10:39:45;;;;;;;21.60;14.25;;;16.10;99.90;;;;;;5115974;28;20056;-88
2023/10/09 10:42:33;;;;;;;22.65;14.10;;;16.10;99.90;;;;;;5097421;28;20043;-88
2023/10/09 10:45:02;;;;;;;20.55;14.68;;;16.10;99.90;;;;;;5151278;27;20051;-90
2023/10/09 10:47:34;;;;;;;21.38;12.57;;;16.00;99.90;;;;;;5099988;28;20135;-88
2023/10/09 10:53:34;;;;;;;;;;;;;;;;;;;;;
2023/10/09 10:56:18;;;;;;;21.08;13.57;;;16.00;99.90;;;;;;5114509;28;20766;-89
2023/10/09 11:04:24;;;;;;;26.95;13.20;;;16.00;99.90;;;;;;5112717;28;20477;-88
2023/10/09 11:07:14;;;;;;;27.38;12.88;;;16.10;99.90;;;;;;5095938;28;20044;-88
2023/10/09 11:12:44;;;;;;;33.03;14.45;;;16.00;99.90;;;;;;5113017;28;20087;-88
2023/10/09 11:15:39;;;;;;;31.73;13.20;;;16.00;99.90;;;;;;5099628;28;20077;-93
2023/10/09 11:18:30;;;;;;;24.23;11.88;;;16.00;99.90;;;;;;5097590;28;20047;-92
2023/10/09 11:26:30;;;;;;;25.63;12.68;;;16.10;99.90;;;;;;5118079;28;20047;-92
2023/10/09 11:29:33;;;;;;;;;;;;;;;;;;;;;
2023/10/09 11:32:35;;;;;;;25.30;12.70;;;16.00;99.90;;;;;;5109055;28;20062;-93
2023/10/09 11:35:30;;;;;;;28.42;14.00;;;16.00;99.90;;;;;;5096390;28;20086;-92
2023/10/09 11:38:28;;;;;;;23.02;12.57;;;16.00;99.90;;;;;;5131310;28;20058;-93
2023/10/09 11:41:24;;;;;;;;;;;16.00;99.90;;;;;;5129429;28;20504;-94
2023/10/09 11:44:25;;;;;;;19.95;12.20;;;16.00;99.90;;;;;;5131327;28;19920;-90
2023/10/09 11:52:37;;;;;;;20.60;12.20;;;16.10;99.90;;;;;;5112096;28;20051;-88
2023/10/09 11:55:16;;;;;;;27.13;14.05;;;16.20;99.90;;;;;;5149083;27;20396;-89
2023/10/09 11:57:44;;;;;;;23.90;12.27;;;16.10;99.90;;;;;;5098717;28;20051;-89
2023/10/09 12:02:53;;;;;;;24.85;12.63;;;16.10;99.90;;;;;;5116715;28;20114;-90
2023/10/09 12:05:43;;;;;;;25.35;14.20;;;16.20;99.90;;;;;;5151598;27;20099;-90
2023/10/09 12:08:10;;;;;;;19.02;10.88;;;16.10;99.90;;;;;;5103260;28;20047;-89
2023/10/09 12:10:43;;;;;;;19.30;11.02;;;16.10;99.90;;;;;;5099612;28;20066;-89
2023/10/09 12:13:15;;;;;;;19.45;12.60;;;16.10;99.90;;;;;;5098847;28;20047;-90
2023/10/09 12:15:46;;;;;;;21.85;11.30;;;16.10;99.90;;;;;;5150056;27;20128;-90
2023/10/09 12:18:15;;;;;;;16.63;11.27;;;16.20;99.90;;;;;;5134236;27;20109;-91
2023/10/09 12:23:44;;;;;;;24.15;12.15;;;16.40;99.90;;;;;;5097141;28;20481;-90
2023/10/09 12:26:18;;;;;;;20.88;11.10;;;16.50;99.90;;;;;;5099564;28;20071;-89
2023/10/09 12:28:54;;;;;;;21.35;10.65;;;16.40;99.90;;;;;;5098865;28;20090;-89
2023/10/09 12:31:35;;;;;;;19.52;10.52;;;16.60;99.90;;;;;;5098786;28;20439;-89
2023/10/09 12:34:03;;;;;;;15.75;7.80;;;16.70;99.90;;;;;;5114622;28;20044;-90
2023/10/09 12:36:39;;;;;;;15.40;8.07;;;16.70;99.90;;;;;;5097558;28;20043;-90
2023/10/09 12:39:18;;;;;;;15.45;7.13;;;16.70;99.90;;;;;;5151922;27;20557;-90
2023/10/09 12:41:54;;;;;;;9.02;5.57;;;16.60;99.90;;;;;;5085898;28;20447;-92
2023/10/09 12:44:52;;;;;;;10.48;6.03;;;16.80;99.90;;;;;;5085443;28;20039;-91
2023/10/09 12:47:32;;;;;;;10.10;5.65;;;16.70;99.90;;;;;;5113966;28;20113;-92
2023/10/09 12:50:16;;;;;;;11.52;5.47;;;16.80;99.90;;;;;;5100305;28;20036;-92
2023/10/09 12:52:50;;;;;;;11.27;5.43;;;16.70;99.90;;;;;;5102677;28;20070;-91
2023/10/09 12:55:19;;;;;;;13.38;5.47;;;16.00;99.90;;;;;;5082372;28;20090;-91
2023/10/09 12:57:48;;;;;;;10.70;5.35;;;16.80;99.90;;;;;;5150678;27;20120;-91
2023/10/09 13:00:37;;;;;;;12.02;4.93;;;16.90;99.90;;;;;;5100778;28;20489;-93
2023/10/09 13:03:21;;;;;;;8.60;4.15;;;17.10;99.90;;;;;;5151001;27;20104;-95
2023/10/09 13:05:55;;;;;;;12.95;4.60;;;17.20;99.90;;;;;;5098539;28;20465;-93
2023/10/09 13:08:52;;;;;;;11.75;4.93;;;17.30;99.90;;;;;;5149147;27;20043;-93
2023/10/09 13:11:53;;;;;;;;;;;;;;;;;;;;;
2023/10/09 13:15:08;;;;;;;9.85;4.70;;;17.30;99.90;;;;;;5116002;28;20039;-93
2023/10/09 13:17:44;;;;;;;14.82;5.22;;;17.30;99.90;;;;;;5086781;28;20087;-95
2023/10/09 13:20:29;;;;;;;10.80;4.95;;;17.30;99.90;;;;;;5102385;28;20546;-93
2023/10/09 13:23:15;;;;;;;;;;;;;;;;;;;;;
2023/10/09 13:25:53;;;;;;;13.02;5.00;;;18.20;99.90;;;;;;5137460;27;20318;-91
2023/10/09 13:28:41;;;;;;;6.10;4.63;;;17.30;99.90;;;;;;5099771;28;20044;-91
2023/10/09 13:31:27;;;;;;;10.27;5.07;;;17.10;99.90;;;;;;5100143;28;20079;-91
2023/10/09 13:34:00;;;;;;;8.32;4.45;;;17.30;99.90;;;;;;5098757;28;20125;-92
2023/10/09 13:36:36;;;;;;;8.57;4.70;;;16.70;99.90;;;;;;5097707;28;20047;-92
2023/10/09 13:42:16;;;;;;;8.07;4.85;;;17.20;99.90;;;;;;5015727;28;20045;-92
2023/10/09 13:44:48;;;;;;;5.75;4.40;;;17.30;99.90;;;;;;5015433;28;20577;-92
2023/10/09 13:48:11;;;;;;;;;;;;;;;;;;;;;
2023/10/09 13:50:42;;;;;;;11.27;4.68;;;17.30;99.90;;;;;;5065822;28;20116;-90
2023/10/09 13:53:10;;;;;;;9.32;4.43;;;17.20;99.90;;;;;;5078298;28;20074;-87
2023/10/09 13:55:43;;;;;;;7.40;4.88;;;17.20;99.90;;;;;;5095408;28;20055;-87
2023/10/09 13:58:18;;;;;;;12.27;4.78;;;16.30;99.90;;;;;;5076996;28;20048;-87
2023/10/09 14:00:53;;;;;;;6.70;4.32;;;17.00;99.90;;;;;;5093246;28;20052;-87
2023/10/09 14:03:23;;;;;;;7.40;3.80;;;17.00;99.90;;;;;;5061837;28;20048;-90
2023/10/09 14:05:54;;;;;;;8.40;4.43;;;17.00;99.90;;;;;;5092504;28;20109;-89
2023/10/09 14:08:28;;;;;;;8.52;3.67;;;17.00;99.90;;;;;;5075634;28;20131;-89
2023/10/09 14:10:54;;;;;;;11.77;3.75;;;17.00;99.90;;;;;;5069070;28;20048;-89
2023/10/09 14:13:28;;;;;;;5.60;3.10;;;16.40;99.90;;;;;;5109657;28;20051;-89
2023/10/09 14:15:54;;;;;;;7.57;3.55;;;16.80;99.90;;;;;;5092514;28;20051;-89
2023/10/09 14:18:29;;;;;;;8.68;3.40;;;16.80;99.90;;;;;;5109541;28;20131;-89
2023/10/09 14:21:00;;;;;;;6.85;3.38;;;16.80;99.90;;;;;;5092322;28;20039;-88
2023/10/09 14:23:32;;;;;;;8.00;3.58;;;16.70;99.90;;;;;;5109333;28;20485;-88
2023/10/09 14:26:01;;;;;;;8.48;3.47;;;16.70;99.90;;;;;;5092509;28;20040;-88
2023/10/09 14:28:28;;;;;;;4.32;3.38;;;17.60;99.90;;;;;;5108798;28;20048;-88
2023/10/09 14:30:59;;;;;;;8.02;3.60;;;16.70;99.90;;;;;;5109164;28;20052;-88
2023/10/09 14:33:36;;;;;;;6.47;3.50;;;16.70;99.90;;;;;;5092109;28;20063;-88
2023/10/09 14:36:02;;;;;;;13.25;4.80;;;16.80;99.90;;;;;;5108356;28;20048;-88
2023/10/09 14:38:32;;;;;;;6.13;3.35;;;16.60;99.90;;;;;;5128551;27;20044;-88
2023/10/09 14:40:59;;;;;;;5.40;4.07;;;16.60;99.90;;;;;;5114422;28;20052;-88
2023/10/09 14:43:30;;;;;;;8.10;3.53;;;16.60;99.90;;;;;;5097614;28;20138;-88
2023/10/09 14:45:58;;;;;;;7.05;3.97;;;16.50;99.90;;;;;;5147476;27;20622;-88
2023/10/09 14:48:41;;;;;;;8.90;4.28;;;16.60;99.90;;;;;;5096384;28;20067;-88
2023/10/09 14:51:13;;;;;;;10.30;4.50;;;16.50;99.90;;;;;;5081566;28;20138;-88
2023/10/09 14:53:41;;;;;;;6.72;4.07;;;15.90;99.90;;;;;;5112737;28;20177;-88
2023/10/09 14:56:09;;;;;;;7.82;3.83;;;15.60;99.90;;;;;;5096239;28;20103;-87
2023/10/09 14:58:38;;;;;;;10.00;3.28;;;16.50;99.90;;;;;;5148184;27;20052;-88
2023/10/09 15:01:10;;;;;;;6.97;3.75;;;16.50;99.90;;;;;;5095564;28;20504;-88
2023/10/09 15:03:39;;;;;;;13.38;6.03;;;16.40;99.90;;;;;;5147869;27;20442;-88
2023/10/09 15:06:10;;;;;;;6.78;3.72;;;16.40;99.90;;;;;;5096300;28;20047;-88
2023/10/09 15:08:36;;;;;;;11.27;3.85;;;16.40;99.90;;;;;;5095153;28;20053;-89
2023/10/09 15:11:11;;;;;;;6.10;3.60;;;16.40;99.90;;;;;;5127231;28;20044;-88
2023/10/09 15:13:44;;;;;;;8.05;3.55;;;16.40;99.90;;;;;;5112219;28;20048;-88
2023/10/09 15:16:11;;;;;;;7.20;3.47;;;16.40;99.90;;;;;;5113208;28;20043;-88
2023/10/09 15:18:37;;;;;;;;;;;16.40;99.90;;;;;;5096498;28;20078;-89
2023/10/09 15:21:11;;;;;;;9.15;3.42;;;16.30;99.90;;;;;;5096466;28;19942;-88
2023/10/09 15:23:37;;;;;;;8.10;4.00;;;16.00;99.90;;;;;;5113124;28;20052;-91
2023/10/09 15:26:08;;;;;;;12.00;4.15;;;16.30;99.90;;;;;;5113941;28;20047;-87
2023/10/09 15:28:36;;;;;;;5.72;3.83;;;16.40;99.90;;;;;;5114168;28;20065;-88
2023/10/09 15:31:10;;;;;;;7.25;3.33;;;16.40;99.90;;;;;;5083633;28;20488;-88
2023/10/09 15:33:39;;;;;;;7.72;4.00;;;16.40;99.90;;;;;;5101530;28;20112;-88
2023/10/09 15:36:25;;;;;;;10.57;4.47;;;16.30;99.90;;;;;;5117189;28;20054;-88
2023/10/09 15:38:51;;;;;;;6.75;3.50;;;16.30;99.90;;;;;;5117562;28;20086;-88
2023/10/09 15:41:21;;;;;;;5.93;3.70;;;16.30;99.90;;;;;;5099798;28;20051;-88
2023/10/09 15:43:47;;;;;;;7.50;3.75;;;16.30;99.90;;;;;;5098101;28;20477;-88
2023/10/09 15:46:16;;;;;;;9.82;3.47;;;16.20;99.90;;;;;;5099145;28;20046;-88
2023/10/09 15:48:46;;;;;;;6.30;3.90;;;15.40;99.90;;;;;;5098651;28;20473;-88